createdAt,value
2022-08-29T00:02:30.045Z,1.10
2022-08-29T00:05:20.491Z,1.10
2022-08-29T00:08:10.809Z,1.10
2022-08-29T00:10:56.595Z,1.13
2022-08-29T00:13:42.605Z,1.48
2022-08-29T00:16:28.317Z,1.20
2022-08-29T00:19:14.106Z,1.25
2022-08-29T00:21:59.418Z,1.40
2022-08-29T00:24:45.111Z,1.40
2022-08-29T00:27:31.782Z,1.25
2022-08-29T00:30:18.575Z,1.20
2022-08-29T00:33:04.286Z,1.50
2022-08-29T00:35:49.826Z,1.45
2022-08-29T00:38:37.144Z,1.77
2022-08-29T00:41:22.670Z,1.58
2022-08-29T00:44:08.069Z,1.63
2022-08-29T00:46:57.052Z,1.73
2022-08-29T00:49:46.187Z,1.70
2022-08-29T00:52:39.456Z,1.77
2022-08-29T00:55:29.018Z,1.75
2022-08-29T00:58:21.419Z,2.13
2022-08-29T01:01:07.363Z,1.80
2022-08-29T01:03:53.557Z,1.95
2022-08-29T01:06:40.903Z,1.80
2022-08-29T01:09:27.413Z,1.60
2022-08-29T01:12:17.118Z,1.40
2022-08-29T01:15:07.288Z,1.70
2022-08-29T01:17:54.209Z,1.80
2022-08-29T01:20:59.112Z,1.80
2022-08-29T01:23:58.118Z,1.80
2022-08-29T01:26:46.156Z,1.92
2022-08-29T01:29:31.725Z,2.13
2022-08-29T01:32:17.224Z,1.70
2022-08-29T01:35:03.395Z,1.98
2022-08-29T01:37:48.581Z,2.00
2022-08-29T01:40:35.211Z,1.80
2022-08-29T01:43:20.950Z,1.60
2022-08-29T01:46:06.878Z,1.60
2022-08-29T01:48:52.777Z,1.63
2022-08-29T01:51:39.127Z,1.38
2022-08-29T01:54:24.561Z,1.58
2022-08-29T01:57:13.086Z,1.50
2022-08-29T01:59:58.742Z,1.80
2022-08-29T02:02:43.876Z,1.88
2022-08-29T02:05:30.160Z,1.77
2022-08-29T02:08:15.769Z,2.10
2022-08-29T02:11:01.551Z,1.92
2022-08-29T02:13:52.325Z,2.10
2022-08-29T02:16:37.430Z,1.80
2022-08-29T02:19:23.455Z,1.90
2022-08-29T02:22:10.280Z,1.60
2022-08-29T02:24:55.821Z,1.67
2022-08-29T02:27:41.215Z,1.70
2022-08-29T02:30:26.677Z,1.85
2022-08-29T02:33:13.643Z,2.03
2022-08-29T02:35:59.354Z,2.00
2022-08-29T02:38:45.196Z,1.80
2022-08-29T02:41:31.751Z,1.95
2022-08-29T02:44:17.188Z,2.05
2022-08-29T02:47:02.425Z,2.17
2022-08-29T02:49:47.752Z,2.25
2022-08-29T02:52:37.296Z,1.95
2022-08-29T02:55:24.745Z,2.28
2022-08-29T02:58:09.869Z,2.15
2022-08-29T03:00:56.674Z,2.10
2022-08-29T03:03:42.528Z,2.08
2022-08-29T03:06:28.052Z,2.08
2022-08-29T03:09:13.432Z,1.88
2022-08-29T03:11:59.327Z,1.95
2022-08-29T03:14:44.913Z,1.95
2022-08-29T03:17:31.393Z,1.88
2022-08-29T03:20:19.111Z,1.90
2022-08-29T03:23:05.910Z,2.03
2022-08-29T03:25:54.915Z,1.75
2022-08-29T03:28:40.224Z,1.90
2022-08-29T03:31:25.763Z,1.63
2022-08-29T03:34:11.112Z,1.90
2022-08-29T03:36:57.052Z,1.90
2022-08-29T03:39:42.240Z,2.05
2022-08-29T03:42:27.650Z,1.70
2022-08-29T03:45:15.592Z,1.60
2022-08-29T03:48:01.180Z,1.85
2022-08-29T03:50:46.480Z,1.90
2022-08-29T03:53:35.130Z,1.90
2022-08-29T03:56:21.142Z,1.88
2022-08-29T03:59:06.741Z,1.67
2022-08-29T04:01:52.260Z,1.90
2022-08-29T04:04:55.889Z,1.83
2022-08-29T04:07:49.492Z,2.25
2022-08-29T04:10:38.437Z,1.88
2022-08-29T04:13:23.991Z,1.70
2022-08-29T04:16:14.327Z,1.58
2022-08-29T04:18:59.950Z,2.05
2022-08-29T04:21:45.543Z,1.80
2022-08-29T04:24:35.145Z,1.60
2022-08-29T04:27:20.777Z,1.63
2022-08-29T04:30:10.988Z,1.90
2022-08-29T04:32:56.952Z,1.70
2022-08-29T04:35:42.293Z,1.90
2022-08-29T04:38:27.672Z,1.77
2022-08-29T04:41:14.937Z,1.70
2022-08-29T04:44:01.117Z,1.80
2022-08-29T04:46:46.244Z,1.60
2022-08-29T04:49:31.718Z,1.55
2022-08-29T04:52:17.208Z,1.73
2022-08-29T04:55:04.063Z,1.58
2022-08-29T04:57:50.968Z,1.75
2022-08-29T05:00:37.474Z,1.48
2022-08-29T05:03:23.438Z,1.67
2022-08-29T05:06:12.909Z,1.90
2022-08-29T05:08:59.199Z,2.17
2022-08-29T05:11:45.455Z,1.70
2022-08-29T05:14:31.093Z,1.63
2022-08-29T05:17:16.434Z,2.22
2022-08-29T05:20:04.771Z,2.22
2022-08-29T05:22:50.420Z,2.20
2022-08-29T05:25:36.530Z,2.28
2022-08-29T05:28:22.124Z,1.92
2022-08-29T05:31:10.743Z,2.10
2022-08-29T05:33:58.931Z,1.90
2022-08-29T05:36:44.197Z,2.30
2022-08-29T05:39:29.468Z,2.15
2022-08-29T05:42:17.267Z,2.33
2022-08-29T05:45:06.191Z,2.00
2022-08-29T05:47:51.617Z,2.28
2022-08-29T05:50:41.968Z,2.35
2022-08-29T05:53:27.862Z,2.03
2022-08-29T05:56:19.994Z,2.70
2022-08-29T05:59:05.644Z,2.28
2022-08-29T06:01:50.762Z,2.28
2022-08-29T06:04:36.547Z,2.25
2022-08-29T06:07:21.960Z,1.92
2022-08-29T06:10:09.045Z,2.05
2022-08-29T06:12:54.569Z,2.20
2022-08-29T06:15:44.483Z,2.22
2022-08-29T06:18:36.103Z,2.13
2022-08-29T06:21:22.211Z,2.30
2022-08-29T06:24:07.860Z,2.08
2022-08-29T06:26:53.028Z,2.30
2022-08-29T06:29:43.586Z,2.00
2022-08-29T06:32:29.575Z,1.90
2022-08-29T06:35:15.042Z,2.08
2022-08-29T06:38:00.602Z,2.30
2022-08-29T06:40:45.777Z,2.25
2022-08-29T06:43:31.271Z,2.40
2022-08-29T06:46:25.945Z,2.00
2022-08-29T06:49:13.753Z,2.45
2022-08-29T06:51:59.696Z,2.15
2022-08-29T06:54:45.135Z,2.30
2022-08-29T06:57:31.974Z,2.30
2022-08-29T07:00:21.785Z,1.98
2022-08-29T07:03:08.732Z,2.40
2022-08-29T07:05:54.248Z,2.30
2022-08-29T07:08:55.451Z,1.77
2022-08-29T07:11:42.843Z,1.80
2022-08-29T07:14:27.858Z,1.60
2022-08-29T07:17:19.847Z,2.20
2022-08-29T07:20:11.541Z,1.90
2022-08-29T07:22:56.976Z,1.80
2022-08-29T07:25:42.500Z,1.80
2022-08-29T07:28:30.894Z,1.90
2022-08-29T07:31:19.652Z,1.48
2022-08-29T07:34:06.271Z,1.60
2022-08-29T07:36:51.896Z,1.90
2022-08-29T07:39:37.195Z,2.38
2022-08-29T07:42:22.295Z,2.05
2022-08-29T07:45:09.611Z,2.00
2022-08-29T07:47:54.888Z,1.98
2022-08-29T07:50:42.463Z,2.00
2022-08-29T07:53:27.793Z,2.10
2022-08-29T07:56:17.290Z,2.10
2022-08-29T07:59:02.936Z,1.90
2022-08-29T08:01:49.016Z,2.13
2022-08-29T08:04:34.691Z,1.85
2022-08-29T08:07:20.691Z,2.00
2022-08-29T08:10:17.574Z,1.70
2022-08-29T08:13:02.899Z,1.80
2022-08-29T08:15:48.835Z,2.22
2022-08-29T08:18:36.758Z,1.67
2022-08-29T08:21:23.561Z,2.10
2022-08-29T08:24:09.574Z,1.80
2022-08-29T08:26:55.573Z,1.70
2022-08-29T08:29:44.072Z,1.65
2022-08-29T08:32:32.287Z,2.17
2022-08-29T08:35:22.552Z,1.73
2022-08-29T08:38:10.998Z,2.20
2022-08-29T08:41:16.797Z,2.40
2022-08-29T08:44:07.065Z,1.90
2022-08-29T08:46:58.362Z,1.90
2022-08-29T08:49:50.118Z,2.03
2022-08-29T08:52:52.287Z,2.03
2022-08-29T08:55:54.458Z,2.22
2022-08-29T08:59:06.819Z,1.92
2022-08-29T09:05:39.773Z,2.00
2022-08-29T09:08:34.360Z,2.05
2022-08-29T09:11:48.945Z,1.88
2022-08-29T09:14:44.562Z,2.10
2022-08-29T09:17:42.588Z,1.85
2022-08-29T09:20:31.458Z,2.10
2022-08-29T09:23:27.415Z,2.30
2022-08-29T09:26:16.085Z,2.30
2022-08-29T09:29:01.414Z,1.80
2022-08-29T09:32:08.419Z,1.80
2022-08-29T09:35:10.275Z,1.85
2022-08-29T09:37:59.727Z,1.88
2022-08-29T09:40:47.975Z,1.90
2022-08-29T09:43:50.463Z,1.95
2022-08-29T09:46:35.743Z,1.80
2022-08-29T09:49:21.086Z,1.88
2022-08-29T09:52:25.511Z,1.77
2022-08-29T09:55:17.094Z,1.90
2022-08-29T09:58:04.996Z,1.98
2022-08-29T10:01:12.131Z,1.90
2022-08-29T10:04:01.046Z,2.05
2022-08-29T10:06:50.655Z,1.63
2022-08-29T10:09:38.052Z,2.00
2022-08-29T10:12:45.805Z,2.10
2022-08-29T10:15:50.870Z,1.73
2022-08-29T10:19:11.320Z,2.28
2022-08-29T10:22:08.505Z,1.65
2022-08-29T10:25:06.134Z,1.55
2022-08-29T10:28:03.279Z,1.90
2022-08-29T10:31:00.769Z,1.77
2022-08-29T10:33:55.208Z,1.88
2022-08-29T10:36:46.305Z,1.50
2022-08-29T10:39:41.157Z,1.73
2022-08-29T10:42:26.797Z,1.70
2022-08-29T10:45:30.674Z,1.45
2022-08-29T10:48:25.301Z,1.40
2022-08-29T10:51:29.381Z,1.63
2022-08-29T10:54:38.120Z,1.70
2022-08-29T10:57:53.247Z,1.50
2022-08-29T11:00:47.581Z,1.15
2022-08-29T11:03:58.618Z,1.60
2022-08-29T11:06:55.107Z,1.40
2022-08-29T11:09:57.947Z,1.40
2022-08-29T11:12:59.997Z,1.27
2022-08-29T11:16:15.345Z,1.40
2022-08-29T11:19:23.698Z,1.65
2022-08-29T11:22:20.636Z,1.40
2022-08-29T11:25:16.725Z,1.80
2022-08-29T11:28:25.084Z,1.50
2022-08-29T11:31:39.937Z,1.30
2022-08-29T11:34:51.733Z,1.80
2022-08-29T11:37:58.229Z,1.53
2022-08-29T11:44:29.804Z,1.42
2022-08-29T11:47:40.878Z,1.50
2022-08-29T11:50:35.353Z,1.65
2022-08-29T11:53:20.669Z,1.77
2022-08-29T11:56:12.283Z,1.55
2022-08-29T11:58:59.122Z,1.70
2022-08-29T12:02:04.728Z,1.30
2022-08-29T12:04:57.774Z,1.30
2022-08-29T12:08:35.671Z,1.70
2022-08-29T12:11:19.170Z,1.52
2022-08-29T12:14:04.853Z,1.60
2022-08-29T12:16:53.335Z,1.38
2022-08-29T12:19:48.093Z,1.60
2022-08-29T12:23:06.826Z,1.60
2022-08-29T12:29:02.555Z,1.60
2022-08-29T12:32:23.480Z,1.52
2022-08-29T12:35:26.203Z,1.55
2022-08-29T12:38:33.675Z,1.60
2022-08-29T12:42:01.017Z,1.30
2022-08-29T12:44:58.862Z,1.27
2022-08-29T12:48:00.504Z,1.50
2022-08-29T12:53:35.421Z,1.63
2022-08-29T12:56:22.833Z,1.35
2022-08-29T12:59:20.099Z,1.30
2022-08-29T13:02:06.865Z,1.77
2022-08-29T13:04:52.634Z,1.70
2022-08-29T13:07:37.635Z,1.48
2022-08-29T13:10:23.448Z,1.30
2022-08-29T13:13:13.060Z,1.40
2022-08-29T13:16:01.640Z,1.10
2022-08-29T13:19:07.370Z,1.30
2022-08-29T13:22:03.776Z,1.27
2022-08-29T13:25:01.140Z,1.38
2022-08-29T13:27:48.348Z,1.30
2022-08-29T13:30:33.444Z,1.48
2022-08-29T13:33:35.637Z,1.20
2022-08-29T13:36:27.436Z,1.10
2022-08-29T13:39:25.405Z,1.30
2022-08-29T13:42:16.772Z,1.27
2022-08-29T13:45:08.457Z,1.08
2022-08-29T13:48:12.426Z,1.42
2022-08-29T13:50:58.490Z,1.30
2022-08-29T13:53:45.398Z,1.40
2022-08-29T13:56:33.462Z,1.63
2022-08-29T13:59:22.052Z,2.30
2022-08-29T14:02:09.713Z,1.63
2022-08-29T14:04:55.932Z,1.92
2022-08-29T14:07:43.809Z,2.08
2022-08-29T14:10:29.117Z,1.30
2022-08-29T14:13:14.792Z,1.48
2022-08-29T14:16:00.532Z,1.30
2022-08-29T14:18:46.116Z,1.27
2022-08-29T14:21:31.866Z,1.30
2022-08-29T14:24:17.373Z,1.50
2022-08-29T14:27:03.587Z,1.42
2022-08-29T14:29:49.604Z,1.15
2022-08-29T14:32:35.171Z,1.40
2022-08-29T14:35:26.549Z,1.13
2022-08-29T14:38:17.837Z,1.38
2022-08-29T14:41:03.725Z,1.20
2022-08-29T14:43:49.273Z,1.50
2022-08-29T14:46:35.210Z,1.33
2022-08-29T14:49:20.704Z,1.30
2022-08-29T14:52:07.324Z,1.60
2022-08-29T14:54:52.761Z,1.30
2022-08-29T14:57:39.165Z,1.40
2022-08-29T15:00:27.761Z,1.20
2022-08-29T15:03:14.084Z,1.40
2022-08-29T15:05:59.599Z,1.30
2022-08-29T15:08:45.318Z,1.25
2022-08-29T15:11:31.308Z,1.52
2022-08-29T15:14:16.425Z,1.50
2022-08-29T15:17:03.297Z,1.50
2022-08-29T15:22:54.652Z,1.20
2022-08-29T15:25:40.130Z,1.40
2022-08-29T15:28:31.017Z,1.80
2022-08-29T15:31:16.648Z,1.23
2022-08-29T15:34:02.027Z,1.55
2022-08-29T15:36:48.845Z,1.20
2022-08-29T15:39:34.459Z,1.30
2022-08-29T15:42:24.211Z,1.20
2022-08-29T15:45:10.679Z,1.50
2022-08-29T15:48:00.152Z,1.83
2022-08-29T15:50:45.717Z,1.60
2022-08-29T15:53:31.192Z,1.42
2022-08-29T15:56:16.685Z,1.65
2022-08-29T15:59:05.876Z,1.30
2022-08-29T16:01:53.371Z,1.20
2022-08-29T16:04:44.787Z,1.30
2022-08-29T16:07:30.062Z,1.85
2022-08-29T16:10:15.972Z,1.52
2022-08-29T16:13:01.120Z,2.03
2022-08-29T16:15:46.552Z,2.22
2022-08-29T16:18:32.122Z,2.20
2022-08-29T16:21:20.048Z,2.22
2022-08-29T16:24:07.345Z,2.00
2022-08-29T16:26:53.233Z,2.25
2022-08-29T16:29:39.255Z,2.42
2022-08-29T16:32:24.807Z,2.20
2022-08-29T16:35:10.698Z,2.42
2022-08-29T16:38:02.612Z,3.67
2022-08-29T16:40:48.743Z,2.65
2022-08-29T16:43:35.690Z,2.58
2022-08-29T16:46:24.605Z,2.38
2022-08-29T16:49:10.412Z,2.45
2022-08-29T16:51:57.322Z,3.17
2022-08-29T16:54:42.471Z,2.83
2022-08-29T16:57:27.969Z,2.75
2022-08-29T17:00:14.342Z,2.75
2022-08-29T17:02:59.996Z,2.65
2022-08-29T17:05:45.751Z,2.30
2022-08-29T17:08:31.197Z,2.85
2022-08-29T17:11:16.706Z,2.20
2022-08-29T17:14:01.822Z,2.15
2022-08-29T17:16:49.299Z,3.30
2022-08-29T17:19:34.748Z,2.83
2022-08-29T17:22:20.417Z,2.63
2022-08-29T17:25:06.585Z,2.65
2022-08-29T17:28:17.726Z,2.88
2022-08-29T17:30:58.549Z,2.55
2022-08-29T17:33:43.963Z,2.53
2022-08-29T17:36:29.065Z,2.47
2022-08-29T17:39:14.548Z,2.75
2022-08-29T17:42:00.135Z,2.83
2022-08-29T17:44:47.540Z,2.47
2022-08-29T17:47:32.957Z,2.70
2022-08-29T17:50:18.481Z,2.80
2022-08-29T17:53:04.072Z,2.58
2022-08-29T17:55:51.144Z,2.70
2022-08-29T17:58:36.623Z,2.33
2022-08-29T18:01:21.979Z,2.42
2022-08-29T18:04:08.176Z,2.60
2022-08-29T18:06:55.129Z,3.00
2022-08-29T18:09:40.392Z,2.70
2022-08-29T18:12:25.970Z,3.03
2022-08-29T18:15:12.696Z,3.30
2022-08-29T18:17:57.954Z,2.40
2022-08-29T18:20:43.519Z,2.60
2022-08-29T18:23:29.674Z,3.10
2022-08-29T18:26:15.638Z,2.38
2022-08-29T18:29:00.843Z,2.47
2022-08-29T18:31:46.298Z,2.83
2022-08-29T18:34:32.004Z,2.50
2022-08-29T18:37:17.365Z,2.58
2022-08-29T18:40:04.740Z,2.30
2022-08-29T18:42:52.488Z,2.47
2022-08-29T18:45:39.635Z,2.70
2022-08-29T18:48:29.432Z,3.00
2022-08-29T18:51:15.140Z,2.55
2022-08-29T18:54:00.505Z,2.20
2022-08-29T18:56:46.024Z,2.20
2022-08-29T18:59:32.429Z,2.30
2022-08-29T19:02:17.545Z,2.03
2022-08-29T19:05:03.086Z,2.00
2022-08-29T19:07:48.548Z,2.50
2022-08-29T19:10:35.175Z,2.30
2022-08-29T19:13:20.521Z,1.98
2022-08-29T19:16:07.647Z,2.03
2022-08-29T19:18:54.115Z,2.00
2022-08-29T19:21:40.037Z,2.50
2022-08-29T19:24:25.269Z,1.90
2022-08-29T19:27:26.626Z,2.67
2022-08-29T19:30:17.191Z,2.30
2022-08-29T19:33:02.456Z,2.15
2022-08-29T19:35:51.128Z,2.08
2022-08-29T19:38:36.567Z,1.63
2022-08-29T19:41:21.989Z,2.05
2022-08-29T19:44:07.176Z,1.90
2022-08-29T19:46:53.604Z,1.90
2022-08-29T19:49:43.399Z,2.00
2022-08-29T19:52:31.629Z,2.78
2022-08-29T19:55:20.083Z,2.10
2022-08-29T19:58:07.038Z,2.17
2022-08-29T20:00:52.471Z,2.00
2022-08-29T20:03:41.275Z,2.33
2022-08-29T20:06:26.880Z,2.00
2022-08-29T20:09:12.230Z,2.05
2022-08-29T20:11:57.954Z,2.53
2022-08-29T20:14:43.439Z,2.42
2022-08-29T20:17:30.480Z,2.00
2022-08-29T20:20:24.393Z,2.03
2022-08-29T20:23:09.980Z,2.30
2022-08-29T20:25:55.636Z,2.10
2022-08-29T20:28:42.047Z,2.50
2022-08-29T20:31:28.076Z,2.20
2022-08-29T20:34:13.780Z,2.40
2022-08-29T20:37:12.223Z,2.80
2022-08-29T20:39:58.475Z,1.80
2022-08-29T20:42:44.256Z,2.13
2022-08-29T20:45:29.632Z,2.72
2022-08-29T20:48:15.344Z,1.92
2022-08-29T20:51:06.244Z,1.77
2022-08-29T20:53:51.520Z,2.10
2022-08-29T20:56:37.133Z,2.47
2022-08-29T20:59:26.328Z,2.00
2022-08-29T21:02:12.281Z,1.88
2022-08-29T21:05:16.764Z,1.75
2022-08-29T21:08:04.440Z,1.80
2022-08-29T21:10:52.386Z,1.98
2022-08-29T21:13:39.018Z,1.77
2022-08-29T21:16:25.233Z,1.67
2022-08-29T21:19:10.786Z,1.58
2022-08-29T21:21:59.618Z,1.58
2022-08-29T21:24:44.895Z,1.77
2022-08-29T21:27:30.638Z,1.77
2022-08-29T21:30:16.882Z,1.85
2022-08-29T21:33:02.801Z,1.60
2022-08-29T21:35:50.055Z,1.80
2022-08-29T21:38:35.708Z,1.67
2022-08-29T21:41:21.944Z,1.70
2022-08-29T21:44:08.950Z,1.60
2022-08-29T21:46:54.161Z,1.90
2022-08-29T21:49:39.937Z,1.48
2022-08-29T21:52:25.392Z,1.55
2022-08-29T21:55:10.911Z,1.70
2022-08-29T21:57:58.188Z,1.92
2022-08-29T22:00:45.242Z,1.65
2022-08-29T22:03:30.476Z,1.40
2022-08-29T22:06:16.747Z,1.60
2022-08-29T22:09:02.205Z,1.63
2022-08-29T22:11:47.683Z,1.67
2022-08-29T22:14:51.645Z,1.30
2022-08-29T22:17:37.392Z,1.58
2022-08-29T22:20:22.718Z,1.50
2022-08-29T22:23:08.885Z,1.50
2022-08-29T22:25:54.078Z,1.23
2022-08-29T22:28:40.625Z,1.52
2022-08-29T22:31:26.850Z,1.55
2022-08-29T22:34:14.620Z,1.60
2022-08-29T22:36:59.861Z,2.15
2022-08-29T22:39:45.472Z,1.60
2022-08-29T22:42:31.954Z,1.48
2022-08-29T22:45:18.872Z,1.70
2022-08-29T22:48:04.271Z,1.77
2022-08-29T22:50:54.086Z,1.85
2022-08-29T22:54:04.021Z,1.60
2022-08-29T22:56:49.516Z,1.65
2022-08-29T22:59:37.686Z,1.40
2022-08-29T23:02:23.202Z,1.50
2022-08-29T23:05:10.016Z,1.77
2022-08-29T23:07:56.683Z,1.60
2022-08-29T23:10:44.362Z,1.40
2022-08-29T23:13:34.934Z,1.92
2022-08-29T23:16:23.411Z,1.80
2022-08-29T23:19:09.186Z,2.10
2022-08-29T23:21:54.653Z,1.83
2022-08-29T23:24:41.566Z,2.30
2022-08-29T23:27:44.353Z,2.35
2022-08-29T23:30:29.683Z,2.17
2022-08-29T23:33:16.985Z,2.28
2022-08-29T23:36:03.177Z,2.15
2022-08-29T23:38:48.575Z,2.45
2022-08-29T23:41:38.137Z,2.20
2022-08-29T23:44:23.222Z,2.53
2022-08-29T23:47:08.693Z,2.10
2022-08-29T23:49:54.129Z,1.90
2022-08-29T23:52:40.218Z,2.15
2022-08-29T23:55:25.526Z,2.13
2022-08-29T23:58:11.163Z,2.40
